Aviation Digital Data Service (ADDS)

Output produced by METARs form (0951 UTC 25 March 2019)
found at http://aviationweather.gov/metar/data/
 
KOEO 250935Z AUTO 01005KT 10SM CLR M04/M08 A3037 RMK AO2 T10421085